createdAt,value
2022-07-31T00:00:30.250Z,100378.75
2022-07-31T00:02:58.751Z,100379.00
2022-07-31T00:05:27.838Z,100373.72
2022-07-31T00:07:56.383Z,100378.06
2022-07-31T00:10:25.130Z,100386.34
2022-07-31T00:12:55.014Z,100374.94
2022-07-31T00:15:23.632Z,100377.81
2022-07-31T00:17:52.690Z,100380.28
2022-07-31T00:20:21.277Z,100376.91
2022-07-31T00:22:50.599Z,100378.00
2022-07-31T00:25:20.145Z,100375.53
2022-07-31T00:27:48.575Z,100369.56
2022-07-31T00:30:18.404Z,100369.56
2022-07-31T00:32:48.970Z,100361.19
2022-07-31T00:35:20.675Z,100367.16
2022-07-31T00:37:49.443Z,100368.06
2022-07-31T00:40:18.953Z,100362.03
2022-07-31T00:42:47.354Z,100362.03
2022-07-31T00:45:17.185Z,100354.34
2022-07-31T00:47:50.594Z,100357.84
2022-07-31T00:50:24.277Z,100362.97
2022-07-31T00:52:52.641Z,100359.28
2022-07-31T00:55:22.671Z,100359.97
2022-07-31T00:57:51.051Z,100354.97
2022-07-31T01:00:20.987Z,100354.84
2022-07-31T01:02:49.405Z,100352.22
2022-07-31T01:05:19.063Z,100354.84
2022-07-31T01:07:48.904Z,100345.06
2022-07-31T01:10:25.832Z,100353.34
2022-07-31T01:12:57.991Z,100350.34
2022-07-31T01:15:29.666Z,100348.31
2022-07-31T01:17:59.662Z,100342.94
2022-07-31T01:20:29.736Z,100343.94
2022-07-31T01:23:18.960Z,100345.50
2022-07-31T01:26:20.273Z,100339.44
2022-07-31T01:29:15.558Z,100340.22
2022-07-31T01:31:49.515Z,100341.91
2022-07-31T01:34:25.838Z,100336.63
2022-07-31T01:37:05.036Z,100335.00
2022-07-31T01:39:37.155Z,100336.03
2022-07-31T01:42:09.131Z,100336.38
2022-07-31T01:44:45.535Z,100342.41
2022-07-31T01:47:18.354Z,100341.56
2022-07-31T01:49:49.336Z,100339.59
2022-07-31T01:52:20.562Z,100337.28
2022-07-31T01:54:50.673Z,100331.16
2022-07-31T01:57:22.523Z,100338.13
2022-07-31T02:00:01.152Z,100332.19
2022-07-31T02:02:45.748Z,100333.88
2022-07-31T02:05:17.629Z,100331.41
2022-07-31T02:07:47.450Z,100320.84
2022-07-31T02:10:17.844Z,100320.00
2022-07-31T02:12:47.607Z,100319.91
2022-07-31T02:15:20.431Z,100324.31
2022-07-31T02:17:50.336Z,100319.63
2022-07-31T02:20:26.031Z,100318.00
2022-07-31T02:22:57.315Z,100314.69
2022-07-31T02:25:27.151Z,100320.41
2022-07-31T02:27:59.258Z,100316.94
2022-07-31T02:30:39.404Z,100324.56
2022-07-31T02:33:12.958Z,100318.56
2022-07-31T02:35:45.570Z,100309.91
2022-07-31T02:38:23.166Z,100310.13
2022-07-31T02:41:00.475Z,100312.25
2022-07-31T02:43:32.948Z,100320.31
2022-07-31T02:46:10.187Z,100320.06
2022-07-31T02:48:39.423Z,100322.63
2022-07-31T02:51:11.361Z,100323.44
2022-07-31T02:53:39.897Z,100327.91
2022-07-31T02:56:11.287Z,100320.38
2022-07-31T02:58:42.852Z,100318.91
2022-07-31T03:01:21.302Z,100331.63
2022-07-31T03:03:50.208Z,100328.16
2022-07-31T03:06:19.949Z,100323.72
2022-07-31T03:08:48.402Z,100315.91
2022-07-31T03:11:20.988Z,100324.50
2022-07-31T03:13:51.098Z,100313.91
2022-07-31T03:16:22.440Z,100312.00
2022-07-31T03:18:51.563Z,100313.03
2022-07-31T03:21:21.137Z,100308.69
2022-07-31T03:23:50.682Z,100295.06
2022-07-31T03:26:22.675Z,100307.13
2022-07-31T03:28:51.132Z,100302.97
2022-07-31T03:31:21.341Z,100306.91
2022-07-31T03:33:49.853Z,100296.28
2022-07-31T03:36:18.679Z,100304.81
2022-07-31T03:38:50.449Z,100308.38
2022-07-31T03:41:38.558Z,100311.19
2022-07-31T03:44:07.555Z,100307.88
2022-07-31T03:46:37.455Z,100309.56
2022-07-31T03:49:06.343Z,100314.00
2022-07-31T03:51:35.759Z,100311.94
2022-07-31T03:54:04.673Z,100314.84
2022-07-31T03:56:58.641Z,100312.88
2022-07-31T03:59:29.838Z,100324.31
2022-07-31T04:02:07.991Z,100320.59
2022-07-31T04:04:45.086Z,100325.16
2022-07-31T04:07:13.509Z,100328.69
2022-07-31T04:09:42.721Z,100334.69
2022-07-31T04:12:12.734Z,100331.28
2022-07-31T04:14:41.944Z,100322.25
2022-07-31T04:17:11.800Z,100326.63
2022-07-31T04:19:40.275Z,100326.03
2022-07-31T04:22:09.489Z,100332.63
2022-07-31T04:24:39.437Z,100335.84
2022-07-31T04:27:29.142Z,100331.09
2022-07-31T04:29:58.293Z,100331.59
2022-07-31T04:32:28.085Z,100334.78
2022-07-31T04:35:02.928Z,100342.69
2022-07-31T04:37:32.077Z,100335.44
2022-07-31T04:40:00.879Z,100339.94
2022-07-31T04:42:32.865Z,100341.03
2022-07-31T04:45:01.768Z,100341.66
2022-07-31T04:47:31.636Z,100331.75
2022-07-31T04:50:00.207Z,100334.41
2022-07-31T04:52:28.693Z,100336.25
2022-07-31T04:55:03.379Z,100330.25
2022-07-31T04:57:31.837Z,100334.59
2022-07-31T05:00:01.395Z,100332.53
2022-07-31T05:02:34.975Z,100334.13
2022-07-31T05:05:03.945Z,100339.09
2022-07-31T05:07:35.468Z,100339.50
2022-07-31T05:10:30.523Z,100337.88
2022-07-31T05:12:59.052Z,100334.38
2022-07-31T05:15:27.508Z,100334.28
2022-07-31T05:17:59.354Z,100338.34
2022-07-31T05:20:46.608Z,100342.13
2022-07-31T05:23:46.304Z,100335.75
2022-07-31T05:26:22.403Z,100331.13
2022-07-31T05:28:57.879Z,100330.25
2022-07-31T05:31:27.918Z,100338.94
2022-07-31T05:33:59.540Z,100336.91
2022-07-31T05:36:28.233Z,100330.88
2022-07-31T05:38:56.758Z,100335.53
2022-07-31T05:41:45.205Z,100331.97
2022-07-31T05:44:25.690Z,100329.31
2022-07-31T05:49:26.803Z,100332.75
2022-07-31T05:51:56.616Z,100331.81
2022-07-31T05:54:25.219Z,100320.44
2022-07-31T05:57:12.126Z,100335.56
2022-07-31T06:00:03.799Z,100342.66
2022-07-31T06:02:40.701Z,100336.34
2022-07-31T06:05:36.652Z,100339.34
2022-07-31T06:08:05.577Z,100339.41
2022-07-31T06:10:41.839Z,100336.84
2022-07-31T06:13:10.471Z,100328.78
2022-07-31T06:15:39.302Z,100336.16
2022-07-31T06:18:14.950Z,100341.63
2022-07-31T06:20:44.961Z,100342.28
2022-07-31T06:23:19.822Z,100335.00
2022-07-31T06:25:59.556Z,100339.66
2022-07-31T06:28:33.804Z,100342.66
2022-07-31T06:31:20.623Z,100346.47
2022-07-31T06:33:50.820Z,100342.66
2022-07-31T06:36:24.285Z,100339.56
2022-07-31T06:38:59.411Z,100344.53
2022-07-31T06:41:47.417Z,100337.94
2022-07-31T06:44:46.130Z,100346.09
2022-07-31T06:47:33.648Z,100340.31
2022-07-31T06:50:12.828Z,100353.66
2022-07-31T06:52:49.691Z,100352.09
2022-07-31T06:55:18.168Z,100343.72
2022-07-31T06:57:46.701Z,100351.41
2022-07-31T07:00:20.257Z,100344.66
2022-07-31T07:02:49.730Z,100348.38
2022-07-31T07:05:18.665Z,100348.88
2022-07-31T07:07:52.262Z,100348.56
2022-07-31T07:10:20.829Z,100349.06
2022-07-31T07:13:12.286Z,100343.94
2022-07-31T07:15:42.434Z,100343.38
2022-07-31T07:18:11.803Z,100343.03
2022-07-31T07:20:48.425Z,100342.50
2022-07-31T07:23:18.502Z,100343.94
2022-07-31T07:26:10.150Z,100336.28
2022-07-31T07:28:39.635Z,100335.81
2022-07-31T07:31:11.074Z,100323.94
2022-07-31T07:33:42.526Z,100324.53
2022-07-31T07:36:24.832Z,100324.69
2022-07-31T07:39:05.439Z,100331.31
2022-07-31T07:41:35.617Z,100324.88
2022-07-31T07:44:04.173Z,100329.03
2022-07-31T07:46:32.744Z,100324.00
2022-07-31T07:49:06.773Z,100335.13
2022-07-31T07:51:59.398Z,100331.75
2022-07-31T07:54:36.172Z,100334.13
2022-07-31T07:57:23.435Z,100333.06
2022-07-31T08:00:10.914Z,100325.16
2022-07-31T08:03:46.840Z,100330.06
2022-07-31T08:05:38.763Z,100323.91
2022-07-31T08:08:07.281Z,100322.50
2022-07-31T08:10:52.030Z,100321.19
2022-07-31T08:13:27.943Z,100317.41
2022-07-31T08:16:15.265Z,100315.31
2022-07-31T08:18:46.372Z,100310.59
2022-07-31T08:21:15.058Z,100318.94
2022-07-31T08:23:43.541Z,100311.19
2022-07-31T08:26:13.921Z,100313.53
2022-07-31T08:28:50.818Z,100310.00
2022-07-31T08:31:23.806Z,100311.34
2022-07-31T08:34:30.793Z,100308.16
2022-07-31T08:37:50.935Z,100302.25
2022-07-31T08:39:52.067Z,100307.09
2022-07-31T08:42:21.998Z,100303.78
2022-07-31T08:44:50.481Z,100301.69
2022-07-31T08:47:23.607Z,100297.03
2022-07-31T08:49:53.953Z,100303.69
2022-07-31T08:52:26.179Z,100291.50
2022-07-31T08:55:08.471Z,100289.38
2022-07-31T08:57:38.428Z,100297.94
2022-07-31T09:00:09.018Z,100290.19
2022-07-31T09:02:39.460Z,100289.75
2022-07-31T09:05:42.279Z,100281.13
2022-07-31T09:08:14.965Z,100290.03
2022-07-31T09:10:50.041Z,100283.97
2022-07-31T09:13:21.440Z,100280.47
2022-07-31T09:15:52.695Z,100275.88
2022-07-31T09:18:25.158Z,100273.31
2022-07-31T09:21:09.381Z,100268.63
2022-07-31T09:23:47.388Z,100268.63
2022-07-31T09:26:16.710Z,100262.75
2022-07-31T09:28:49.218Z,100260.84
2022-07-31T09:31:17.738Z,100266.06
2022-07-31T09:34:09.331Z,100264.59
2022-07-31T09:36:40.798Z,100252.47
2022-07-31T09:39:27.805Z,100247.50
2022-07-31T09:42:20.508Z,100250.66
2022-07-31T09:44:56.016Z,100250.59
2022-07-31T09:47:28.971Z,100241.56
2022-07-31T09:50:02.119Z,100247.81
2022-07-31T09:52:33.638Z,100233.50
2022-07-31T09:55:15.815Z,100236.31
2022-07-31T09:57:55.175Z,100239.81
2022-07-31T10:00:26.754Z,100230.09
2022-07-31T10:02:57.427Z,100234.56
2022-07-31T10:05:29.054Z,100235.56
2022-07-31T10:08:02.088Z,100233.59
2022-07-31T10:10:53.789Z,100230.34
2022-07-31T10:13:26.327Z,100229.34
2022-07-31T10:16:01.067Z,100224.47
2022-07-31T10:18:52.086Z,100220.03
2022-07-31T10:22:02.910Z,100214.03
2022-07-31T10:24:45.407Z,100217.22
2022-07-31T10:27:16.224Z,100208.31
2022-07-31T10:29:45.966Z,100208.41
2022-07-31T10:32:15.966Z,100217.47
2022-07-31T10:35:07.511Z,100208.31
2022-07-31T10:38:13.815Z,100211.69
2022-07-31T10:41:12.959Z,100208.28
2022-07-31T10:43:48.042Z,100201.16
2022-07-31T10:46:34.668Z,100203.81
2022-07-31T10:49:40.897Z,100200.31
2022-07-31T10:52:34.634Z,100201.63
2022-07-31T10:55:21.934Z,100198.16
2022-07-31T10:58:10.648Z,100193.53
2022-07-31T11:01:07.034Z,100199.13
2022-07-31T11:04:00.852Z,100193.28
2022-07-31T11:06:44.509Z,100182.31
2022-07-31T11:09:51.388Z,100182.91
2022-07-31T11:13:01.564Z,100180.38
2022-07-31T11:15:47.271Z,100176.06
2022-07-31T11:18:34.859Z,100179.03
2022-07-31T11:21:35.959Z,100172.38
2022-07-31T11:24:02.941Z,100164.28
2022-07-31T11:26:41.641Z,100163.66
2022-07-31T11:29:58.627Z,100169.72
2022-07-31T11:32:15.341Z,100161.59
2022-07-31T11:34:49.066Z,100160.41
2022-07-31T11:37:20.545Z,100158.41
2022-07-31T11:39:52.820Z,100160.53
2022-07-31T11:42:26.430Z,100164.78
2022-07-31T11:45:11.134Z,100160.84
2022-07-31T11:48:11.406Z,100168.97
2022-07-31T11:50:32.352Z,100163.78
2022-07-31T11:53:07.106Z,100153.91
2022-07-31T11:55:50.096Z,100147.44
2022-07-31T11:58:21.209Z,100140.03
2022-07-31T12:00:52.457Z,100135.88
2022-07-31T12:03:23.367Z,100127.63
2022-07-31T12:05:54.039Z,100126.84
2022-07-31T12:08:24.213Z,100120.84
2022-07-31T12:10:56.372Z,100111.88
2022-07-31T12:13:26.468Z,100100.00
2022-07-31T12:15:57.248Z,100098.56
2022-07-31T12:18:27.132Z,100098.56
2022-07-31T12:20:58.167Z,100082.94
2022-07-31T12:23:40.201Z,100084.84
2022-07-31T12:26:14.043Z,100086.56
2022-07-31T12:28:43.751Z,100079.94
2022-07-31T12:31:12.220Z,100073.22
2022-07-31T12:33:45.588Z,100079.34
2022-07-31T12:36:16.294Z,100070.13
2022-07-31T12:38:49.131Z,100073.28
2022-07-31T12:41:19.185Z,100063.44
2022-07-31T12:43:51.557Z,100060.31
2022-07-31T12:46:22.868Z,100062.81
2022-07-31T12:48:52.068Z,100057.88
2022-07-31T12:51:45.284Z,100052.81
2022-07-31T12:54:10.155Z,100041.91
2022-07-31T12:56:41.362Z,100038.56
2022-07-31T12:59:10.563Z,100027.66
2022-07-31T13:01:39.224Z,100023.53
2022-07-31T13:04:18.651Z,100029.66
2022-07-31T13:06:52.085Z,100027.06
2022-07-31T13:09:21.156Z,100025.69
2022-07-31T13:11:57.364Z,100020.94
2022-07-31T13:14:26.315Z,100016.44
2022-07-31T13:16:56.195Z,100016.72
2022-07-31T13:19:24.853Z,100012.66
2022-07-31T13:21:56.875Z,100006.41
2022-07-31T13:24:25.741Z,100005.59
2022-07-31T13:26:58.716Z,99997.75
2022-07-31T13:29:27.240Z,100001.47
2022-07-31T13:31:56.109Z,99993.59
2022-07-31T13:34:24.564Z,99988.78
2022-07-31T13:36:52.966Z,99987.81
2022-07-31T13:39:21.387Z,99994.69
2022-07-31T13:41:49.875Z,99991.47
2022-07-31T13:44:20.042Z,99988.53
2022-07-31T13:46:48.495Z,99984.94
2022-07-31T13:49:17.036Z,99987.72
2022-07-31T13:51:45.634Z,99982.97
2022-07-31T13:54:14.432Z,99976.59
2022-07-31T13:56:43.769Z,99984.56
2022-07-31T13:59:13.958Z,99982.13
2022-07-31T14:02:03.822Z,99976.69
2022-07-31T14:04:38.192Z,99975.97
2022-07-31T14:07:09.269Z,99974.34
2022-07-31T14:09:38.053Z,99971.53
2022-07-31T14:12:07.733Z,99970.97
2022-07-31T14:14:38.080Z,99964.78
2022-07-31T14:17:07.865Z,99960.91
2022-07-31T14:19:43.739Z,99963.41
2022-07-31T14:22:14.419Z,99964.78
2022-07-31T14:24:49.402Z,99959.16
2022-07-31T14:27:21.189Z,99957.06
2022-07-31T14:29:49.801Z,99955.78
2022-07-31T14:32:21.930Z,99958.44
2022-07-31T14:34:50.897Z,99964.16
2022-07-31T14:37:20.592Z,99954.63
2022-07-31T14:39:49.150Z,99969.63
2022-07-31T14:42:22.478Z,99959.28
2022-07-31T14:44:54.511Z,99956.59
2022-07-31T14:47:24.379Z,99955.88
2022-07-31T14:50:06.582Z,99954.78
2022-07-31T14:52:36.912Z,99950.81
2022-07-31T14:55:06.113Z,99958.56
2022-07-31T14:57:34.950Z,99949.97
2022-07-31T15:00:03.462Z,99949.56
2022-07-31T15:02:33.278Z,99958.38
2022-07-31T15:06:40.035Z,99950.66
2022-07-31T15:07:50.382Z,99949.28
2022-07-31T15:10:19.061Z,99952.00
2022-07-31T15:12:47.511Z,99944.03
2022-07-31T15:15:15.853Z,99950.72
2022-07-31T15:17:45.561Z,99950.53
2022-07-31T15:20:14.743Z,99953.38
2022-07-31T15:22:43.165Z,99948.88
2022-07-31T15:25:12.568Z,99952.31
2022-07-31T15:27:41.059Z,99945.59
2022-07-31T15:30:11.099Z,99941.16
2022-07-31T15:32:41.017Z,99938.03
2022-07-31T15:35:13.807Z,99947.88
2022-07-31T15:37:45.437Z,99939.75
2022-07-31T15:40:16.964Z,99942.06
2022-07-31T15:42:46.890Z,99937.56
2022-07-31T15:45:17.418Z,99929.53
2022-07-31T15:47:47.371Z,99931.66
2022-07-31T15:50:20.236Z,99935.91
2022-07-31T15:52:49.568Z,99932.44
2022-07-31T15:55:19.099Z,99924.66
2022-07-31T15:57:47.821Z,99931.94
2022-07-31T16:00:17.303Z,99924.28
2022-07-31T16:02:45.871Z,99922.75
2022-07-31T16:05:36.162Z,99921.88
2022-07-31T16:08:29.640Z,99923.09
2022-07-31T16:10:55.102Z,99917.88
2022-07-31T16:13:24.790Z,99908.31
2022-07-31T16:15:54.785Z,99904.31
2022-07-31T16:18:23.201Z,99909.56
2022-07-31T16:20:53.040Z,99908.16
2022-07-31T16:23:21.511Z,99902.44
2022-07-31T16:25:49.969Z,99903.53
2022-07-31T16:28:18.568Z,99893.81
2022-07-31T16:30:47.181Z,99888.19
2022-07-31T16:33:15.747Z,99888.84
2022-07-31T16:35:47.030Z,99889.69
2022-07-31T16:38:16.851Z,99880.53
2022-07-31T16:40:45.354Z,99878.63
2022-07-31T16:43:48.295Z,99882.56
2022-07-31T16:46:02.095Z,99881.97
2022-07-31T16:48:31.210Z,99876.59
2022-07-31T16:50:59.622Z,99877.94
2022-07-31T16:54:11.609Z,99867.03
2022-07-31T16:56:19.509Z,99870.34
2022-07-31T16:58:52.603Z,99868.50
2022-07-31T17:01:58.451Z,99868.97
2022-07-31T17:04:11.462Z,99866.03
2022-07-31T17:06:39.841Z,99863.59
2022-07-31T17:09:16.740Z,99880.47
2022-07-31T17:11:49.140Z,99879.19
2022-07-31T17:14:18.630Z,99884.47
2022-07-31T17:16:49.467Z,99872.31
2022-07-31T17:19:43.028Z,99875.97
2022-07-31T17:22:11.133Z,99879.66
2022-07-31T17:24:41.586Z,99875.06
2022-07-31T17:27:10.760Z,99877.41
2022-07-31T17:29:39.908Z,99877.66
2022-07-31T17:32:11.173Z,99878.69
2022-07-31T17:34:40.660Z,99870.41
2022-07-31T17:37:09.648Z,99876.59
2022-07-31T17:39:38.414Z,99881.03
2022-07-31T17:42:09.527Z,99881.03
2022-07-31T17:44:38.273Z,99882.25
2022-07-31T17:47:09.284Z,99884.19
2022-07-31T17:49:38.144Z,99881.69
2022-07-31T17:52:07.315Z,99881.25
2022-07-31T17:54:35.780Z,99884.81
2022-07-31T17:57:05.609Z,99880.59
2022-07-31T17:59:35.454Z,99891.91
2022-07-31T18:02:04.721Z,99900.13
2022-07-31T18:04:36.998Z,99899.13
2022-07-31T18:07:07.223Z,99893.16
2022-07-31T18:09:36.656Z,99890.69
2022-07-31T18:12:06.685Z,99901.16
2022-07-31T18:14:37.384Z,99903.50
2022-07-31T18:17:06.504Z,99909.41
2022-07-31T18:19:35.008Z,99909.75
2022-07-31T18:22:03.706Z,99911.97
2022-07-31T18:24:32.261Z,99910.25
2022-07-31T18:27:00.660Z,99920.72
2022-07-31T18:29:29.191Z,99920.88
2022-07-31T18:31:58.962Z,99929.94
2022-07-31T18:34:27.386Z,99928.91
2022-07-31T18:36:55.755Z,99928.72
2022-07-31T18:39:24.779Z,99932.75
2022-07-31T18:41:53.275Z,99932.59
2022-07-31T18:44:22.230Z,99932.91
2022-07-31T18:46:50.791Z,99933.09
2022-07-31T18:50:58.777Z,99939.03
2022-07-31T18:52:10.177Z,99944.34
2022-07-31T18:54:39.315Z,99931.44
2022-07-31T18:57:08.071Z,99939.72
2022-07-31T18:59:36.923Z,99936.16
2022-07-31T19:02:06.412Z,99942.59
2022-07-31T19:04:41.171Z,99942.00
2022-07-31T19:07:10.182Z,99938.63
2022-07-31T19:09:39.003Z,99946.63
2022-07-31T19:12:08.946Z,99944.94
2022-07-31T19:14:38.481Z,99946.38
2022-07-31T19:17:07.649Z,99952.47
2022-07-31T19:19:52.508Z,99944.34
2022-07-31T19:22:25.142Z,99952.53
2022-07-31T19:24:54.013Z,99951.94
2022-07-31T19:27:22.472Z,99963.63
2022-07-31T19:30:13.786Z,99957.34
2022-07-31T19:32:42.573Z,99957.34
2022-07-31T19:35:11.667Z,99965.63
2022-07-31T19:37:41.515Z,99967.31
2022-07-31T19:40:11.637Z,99966.63
2022-07-31T19:42:40.564Z,99971.22
2022-07-31T19:45:09.846Z,99973.13
2022-07-31T19:47:38.315Z,99984.03
2022-07-31T19:50:08.704Z,99983.44
2022-07-31T19:52:37.084Z,99984.78
2022-07-31T19:55:09.036Z,99986.72
2022-07-31T19:57:37.952Z,99979.94
2022-07-31T20:00:09.078Z,99983.53
2022-07-31T20:02:38.039Z,99987.44
2022-07-31T20:05:08.766Z,99989.59
2022-07-31T20:07:38.588Z,99989.84
2022-07-31T20:10:10.987Z,99987.44
2022-07-31T20:12:40.077Z,99993.00
2022-07-31T20:15:10.240Z,99998.41
2022-07-31T20:17:39.569Z,99991.66
2022-07-31T20:20:15.648Z,99997.47
2022-07-31T20:22:44.642Z,99999.66
2022-07-31T20:25:19.822Z,99996.38
2022-07-31T20:27:50.153Z,99996.72
2022-07-31T20:30:21.843Z,99999.75
2022-07-31T20:32:51.504Z,99996.81
2022-07-31T20:35:45.583Z,100003.22
2022-07-31T20:38:15.873Z,100005.38
2022-07-31T20:40:54.470Z,100006.47
2022-07-31T20:43:24.950Z,100011.78
2022-07-31T20:45:53.908Z,100011.88
2022-07-31T20:48:24.600Z,100015.84
2022-07-31T20:50:53.605Z,100012.69
2022-07-31T20:53:23.100Z,100014.66
2022-07-31T20:55:52.853Z,100018.47
2022-07-31T20:58:23.384Z,100010.88
2022-07-31T21:00:53.721Z,100006.88
2022-07-31T21:03:22.636Z,100011.69
2022-07-31T21:05:51.572Z,100016.25
2022-07-31T21:08:20.042Z,100002.72
2022-07-31T21:10:48.481Z,100006.09
2022-07-31T21:13:18.593Z,100009.88
2022-07-31T21:15:47.166Z,100004.78
2022-07-31T21:18:17.695Z,100014.69
2022-07-31T21:20:50.779Z,100002.47
2022-07-31T21:23:23.326Z,100009.84
2022-07-31T21:25:52.419Z,100008.25
2022-07-31T21:28:23.302Z,100014.63
2022-07-31T21:30:53.569Z,100021.66
2022-07-31T21:33:22.767Z,100022.50
2022-07-31T21:35:51.625Z,100019.34
2022-07-31T21:38:21.027Z,100026.84
2022-07-31T21:40:50.288Z,100029.66
2022-07-31T21:43:22.610Z,100027.34
2022-07-31T21:45:57.502Z,100030.50
2022-07-31T21:48:31.881Z,100030.75
2022-07-31T21:51:01.647Z,100028.31
2022-07-31T21:53:30.069Z,100031.06
2022-07-31T21:56:00.458Z,100034.34
2022-07-31T21:58:28.829Z,100033.28
2022-07-31T22:00:58.701Z,100037.13
2022-07-31T22:03:27.132Z,100039.88
2022-07-31T22:06:12.192Z,100044.50
2022-07-31T22:08:40.604Z,100040.59
2022-07-31T22:11:09.141Z,100054.38
2022-07-31T22:13:37.595Z,100055.31
2022-07-31T22:16:07.895Z,100060.84
2022-07-31T22:18:37.103Z,100059.91
2022-07-31T22:21:08.970Z,100054.31
2022-07-31T22:23:37.906Z,100058.66
2022-07-31T22:26:06.843Z,100059.84
2022-07-31T22:28:35.882Z,100062.06
2022-07-31T22:31:06.587Z,100063.34
2022-07-31T22:33:35.234Z,100058.78
2022-07-31T22:36:07.125Z,100059.00
2022-07-31T22:38:37.928Z,100060.81
2022-07-31T22:41:06.622Z,100066.97
2022-07-31T22:44:12.994Z,100060.22
2022-07-31T22:46:25.300Z,100064.66
2022-07-31T22:48:56.105Z,100065.94
2022-07-31T22:51:25.089Z,100074.03
2022-07-31T22:53:53.657Z,100063.44
2022-07-31T22:56:29.542Z,100078.94
2022-07-31T22:58:58.065Z,100080.41
2022-07-31T23:01:27.936Z,100077.66
2022-07-31T23:03:56.414Z,100084.16
2022-07-31T23:06:30.698Z,100086.28
2022-07-31T23:09:01.676Z,100092.75
2022-07-31T23:11:30.390Z,100094.47
2022-07-31T23:13:58.953Z,100095.09
2022-07-31T23:16:28.802Z,100101.16
2022-07-31T23:18:57.322Z,100099.91
2022-07-31T23:21:25.914Z,100094.69
2022-07-31T23:23:54.613Z,100102.94
2022-07-31T23:26:26.053Z,100100.59
2022-07-31T23:28:56.064Z,100102.84
2022-07-31T23:31:24.975Z,100108.25
2022-07-31T23:33:55.580Z,100102.53
2022-07-31T23:36:24.175Z,100097.00
2022-07-31T23:38:53.411Z,100094.25
2022-07-31T23:41:42.556Z,100091.06
2022-07-31T23:44:10.990Z,100096.56
2022-07-31T23:46:40.354Z,100095.09
2022-07-31T23:49:10.625Z,100093.59
2022-07-31T23:51:39.107Z,100089.56
2022-07-31T23:54:08.041Z,100091.56
2022-07-31T23:56:36.478Z,100091.69
2022-07-31T23:59:05.079Z,100100.78
